Time;durP1;ratioP1;P1;durP2;ratioP2;P2;SDS_P1;SDS_P2;PMS_P1;PMS_P2;Temp;Humidity;BMP_temperature;BMP_pressure;BME280_temperature;BME280_humidity;BME280_pressure;Samples;Min_cycle;Max_cycle;Signal;HPM_P1;HPM_P2
2021/04/02 00:01:57;;;;;;;7.30;6.10;;;10.10;1.00;;;;;;5070045;28;20456;-63
2021/04/02 00:04:22;;;;;;;7.33;6.53;;;9.90;1.00;;;;;;5070908;28;20209;-63
2021/04/02 00:06:48;;;;;;;7.80;6.30;;;10.00;1.00;;;;;;5071042;28;20727;-64
2021/04/02 00:09:13;;;;;;;7.20;5.90;;;9.90;1.00;;;;;;5072456;28;20197;-64
2021/04/02 00:11:41;;;;;;;7.10;6.40;;;9.90;1.00;;;;;;5085473;28;20251;-62
2021/04/02 00:14:08;;;;;;;7.00;6.30;;;10.10;1.00;;;;;;5076759;28;20627;-63
2021/04/02 00:16:34;;;;;;;8.10;7.30;;;9.90;1.00;;;;;;5079085;28;20942;-63
2021/04/02 00:19:00;;;;;;;7.70;5.90;;;9.80;1.00;;;;;;5074677;28;20471;-64
2021/04/02 00:21:25;;;;;;;7.40;6.00;;;9.90;1.00;;;;;;5073696;28;20452;-64
2021/04/02 00:23:51;;;;;;;8.23;6.17;;;9.80;1.00;;;;;;5081660;28;20273;-63
2021/04/02 00:26:19;;;;;;;7.63;6.53;;;9.80;1.00;;;;;;5075262;28;20232;-64
2021/04/02 00:28:45;;;;;;;8.97;6.33;;;9.80;1.00;;;;;;5067829;28;20284;-63
2021/04/02 00:31:11;;;;;;;9.83;7.00;;;9.80;1.00;;;;;;5070021;28;20444;-63
2021/04/02 00:33:37;;;;;;;10.30;5.93;;;;;;;;;;5069460;28;20497;-63
2021/04/02 00:36:04;;;;;;;9.90;6.40;;;9.80;1.00;;;;;;5076793;28;20606;-63
2021/04/02 00:38:30;;;;;;;7.87;6.50;;;9.90;1.00;;;;;;5069871;28;20449;-64
2021/04/02 00:41:02;;;;;;;9.60;6.20;;;10.00;1.00;;;;;;5077876;28;20493;-64
2021/04/02 00:43:33;;;;;;;7.60;6.77;;;10.10;1.00;;;;;;5066923;28;20571;-64
2021/04/02 00:45:59;;;;;;;8.87;6.60;;;10.10;1.00;;;;;;5081120;28;20441;-63
2021/04/02 00:48:24;;;;;;;8.17;6.70;;;10.20;1.00;;;;;;5069452;28;20842;-63
2021/04/02 00:50:56;;;;;;;6.70;5.97;;;10.20;1.00;;;;;;5068150;28;20205;-64
2021/04/02 00:53:25;;;;;;;9.10;6.67;;;10.30;1.00;;;;;;5069847;28;20323;-64
2021/04/02 00:55:51;;;;;;;7.40;5.47;;;10.20;1.00;;;;;;5085922;28;20457;-64
2021/04/02 00:58:19;;;;;;;7.70;6.40;;;10.10;1.00;;;;;;5085017;28;20868;-63
2021/04/02 01:00:45;;;;;;;7.97;6.03;;;10.10;1.00;;;;;;5072905;28;20576;-63
2021/04/02 01:03:11;;;;;;;7.23;6.30;;;9.90;1.00;;;;;;5072395;28;20874;-63
2021/04/02 01:05:41;;;;;;;8.13;6.90;;;10.00;1.00;;;;;;5071390;28;20205;-64
2021/04/02 01:08:19;;;;;;;8.80;5.93;;;9.80;1.00;;;;;;5068693;28;20202;-61
2021/04/02 01:10:46;;;;;;;7.77;5.57;;;9.80;1.00;;;;;;5068447;28;20941;-63
2021/04/02 01:13:16;;;;;;;7.60;6.33;;;9.70;1.00;;;;;;5088883;28;20505;-64
2021/04/02 01:15:52;;;;;;;6.93;6.23;;;9.80;1.00;;;;;;5075801;28;20445;-63
2021/04/02 01:18:45;;;;;;;9.57;5.77;;;9.80;1.00;;;;;;5085904;28;20432;-64
2021/04/02 01:21:19;;;;;;;8.50;6.67;;;9.80;1.00;;;;;;5041969;28;20452;-63
2021/04/02 01:24:04;;;;;;;9.00;6.77;;;9.90;1.00;;;;;;5069840;28;20438;-65
2021/04/02 01:26:32;;;;;;;7.63;5.70;;;10.10;1.00;;;;;;5069277;28;20562;-63
2021/04/02 01:29:21;;;;;;;8.50;6.33;;;10.10;1.00;;;;;;5068820;28;20519;-63
2021/04/02 01:31:55;;;;;;;7.73;7.03;;;10.10;1.00;;;;;;5069295;28;20436;-63
2021/04/02 01:34:35;;;;;;;9.40;7.53;;;10.20;1.00;;;;;;5069822;28;20432;-63
2021/04/02 01:37:08;;;;;;;7.90;6.33;;;10.10;1.00;;;;;;5073260;28;20435;-63
2021/04/02 01:39:39;;;;;;;7.27;5.83;;;10.20;1.00;;;;;;5071470;28;20443;-62
2021/04/02 01:42:06;;;;;;;9.37;7.13;;;10.20;1.00;;;;;;5086483;28;20452;-63
2021/04/02 01:44:36;;;;;;;9.03;6.80;;;10.10;1.00;;;;;;5077577;28;20433;-63
2021/04/02 01:47:02;;;;;;;6.53;5.90;;;9.90;1.00;;;;;;5072969;28;20464;-62
2021/04/02 01:49:30;;;;;;;10.70;7.23;;;9.90;1.00;;;;;;5073608;28;20440;-63
2021/04/02 01:51:57;;;;;;;11.37;7.17;;;10.10;1.00;;;;;;5075345;28;20495;-64
2021/04/02 01:54:23;;;;;;;10.20;7.00;;;10.10;1.00;;;;;;5073463;28;20443;-63
2021/04/02 01:56:52;;;;;;;7.80;7.00;;;10.00;1.00;;;;;;5073277;28;20595;-64
2021/04/02 01:59:20;;;;;;;7.57;6.60;;;10.00;1.00;;;;;;5074483;28;20567;-64
2021/04/02 02:01:46;;;;;;;9.90;7.40;;;10.00;1.00;;;;;;5074310;28;20455;-63
2021/04/02 02:04:12;;;;;;;10.90;7.60;;;9.70;1.00;;;;;;5072949;28;20429;-63
2021/04/02 02:06:38;;;;;;;11.57;7.80;;;9.70;1.00;;;;;;5077331;28;20764;-63
2021/04/02 02:09:13;;;;;;;9.63;7.73;;;9.60;1.00;;;;;;5072284;28;20186;-63
2021/04/02 02:11:45;;;;;;;10.37;8.17;;;9.60;1.00;;;;;;5074034;28;20522;-64
2021/04/02 02:14:18;;;;;;;8.50;7.30;;;9.60;1.00;;;;;;5076556;28;20455;-62
2021/04/02 02:16:48;;;;;;;11.97;8.53;;;9.50;32.90;;;;;;5071059;28;20428;-63
2021/04/02 02:19:21;;;;;;;12.27;9.00;;;9.40;99.90;;;;;;5074863;28;20444;-63
2021/04/02 02:21:49;;;;;;;11.67;8.20;;;9.40;99.90;;;;;;5071035;28;20451;-63
2021/04/02 02:24:15;;;;;;;11.13;7.87;;;9.30;99.90;;;;;;5081652;28;20440;-63
2021/04/02 02:26:42;;;;;;;13.33;9.40;;;9.20;99.90;;;;;;5092761;28;20466;-63
2021/04/02 02:29:11;;;;;;;10.70;8.10;;;9.20;99.90;;;;;;5084405;28;20439;-63
2021/04/02 02:31:38;;;;;;;11.80;8.40;;;9.20;99.90;;;;;;5079140;28;20452;-63
2021/04/02 02:34:05;;;;;;;9.20;7.77;;;9.20;99.90;;;;;;5082631;28;20428;-62
2021/04/02 02:36:32;;;;;;;10.77;7.37;;;9.20;99.90;;;;;;5072583;28;20436;-63
2021/04/02 02:38:59;;;;;;;10.07;6.80;;;9.20;99.90;;;;;;5072798;28;20965;-63
2021/04/02 02:41:29;;;;;;;8.30;7.40;;;9.10;99.90;;;;;;5081015;28;20857;-63
2021/04/02 02:43:57;;;;;;;9.83;8.10;;;9.20;99.90;;;;;;5072685;28;20961;-63
2021/04/02 02:46:27;;;;;;;8.43;6.90;;;9.20;99.90;;;;;;5069665;28;20554;-63
2021/04/02 02:48:59;;;;;;;7.63;5.97;;;9.10;99.90;;;;;;5075873;28;20462;-62
2021/04/02 02:51:29;;;;;;;7.93;6.70;;;9.20;99.90;;;;;;5082029;28;20933;-63
2021/04/02 02:53:58;;;;;;;6.47;5.87;;;9.50;99.90;;;;;;5081150;28;20435;-62
2021/04/02 02:56:25;;;;;;;8.83;5.90;;;9.50;99.90;;;;;;5078382;28;20468;-62
2021/04/02 02:58:51;;;;;;;7.23;5.93;;;9.60;99.90;;;;;;5087506;28;20481;-63
2021/04/02 03:01:16;;;;;;;7.97;6.90;;;9.60;99.90;;;;;;5073260;28;20446;-62
2021/04/02 03:03:43;;;;;;;9.80;7.47;;;9.70;99.90;;;;;;5066247;28;20441;-62
2021/04/02 03:06:10;;;;;;;9.83;8.50;;;9.70;99.90;;;;;;5072334;28;20251;-62
2021/04/02 03:08:44;;;;;;;9.00;7.33;;;9.70;99.90;;;;;;5077483;28;20451;-63
2021/04/02 03:11:12;;;;;;;8.87;6.70;;;9.70;99.90;;;;;;5078809;28;20451;-63
2021/04/02 03:13:40;;;;;;;8.53;7.73;;;9.40;99.90;;;;;;5070263;28;20576;-62
2021/04/02 03:16:06;;;;;;;8.37;7.23;;;9.20;99.90;;;;;;5076261;28;20577;-63
2021/04/02 03:18:33;;;;;;;10.00;8.00;;;9.10;99.90;;;;;;5074590;28;20803;-63
2021/04/02 03:21:01;;;;;;;9.90;8.83;;;8.90;99.90;;;;;;5082022;28;20964;-63
2021/04/02 03:23:27;;;;;;;9.43;7.50;;;8.90;99.90;;;;;;5080787;28;20506;-62
2021/04/02 03:25:53;;;;;;;10.37;7.70;;;9.00;99.90;;;;;;5074392;28;20464;-62
2021/04/02 03:28:20;;;;;;;10.13;8.63;;;9.00;99.90;;;;;;5073353;28;20478;-64
2021/04/02 03:30:47;;;;;;;8.60;7.80;;;9.10;99.90;;;;;;5083649;28;20177;-63
2021/04/02 03:33:40;;;;;;;12.13;7.70;;;9.10;99.90;;;;;;5087458;28;20937;-63
2021/04/02 03:36:11;;;;;;;8.13;6.83;;;9.20;99.90;;;;;;5078846;28;20444;-63
2021/04/02 03:38:39;;;;;;;8.43;6.90;;;9.20;99.90;;;;;;5078606;28;20440;-64
2021/04/02 03:41:08;;;;;;;6.43;5.83;;;9.20;99.90;;;;;;5074541;28;21031;-63
2021/04/02 03:43:35;;;;;;;7.57;6.63;;;9.30;99.90;;;;;;5073624;28;20473;-63
2021/04/02 03:46:02;;;;;;;8.07;7.23;;;9.30;99.90;;;;;;5085086;28;20527;-64
2021/04/02 03:48:30;;;;;;;7.83;6.63;;;9.30;99.90;;;;;;5071215;28;20474;-62
2021/04/02 03:51:00;;;;;;;7.03;6.33;;;9.10;99.90;;;;;;5070857;28;20859;-64
2021/04/02 03:53:29;;;;;;;6.33;5.73;;;9.10;99.90;;;;;;5069999;28;20450;-62
2021/04/02 03:55:59;;;;;;;6.73;6.13;;;9.00;99.90;;;;;;5070779;28;20533;-63
2021/04/02 03:58:26;;;;;;;6.63;5.77;;;9.10;99.90;;;;;;5070778;28;20544;-63
2021/04/02 04:01:07;;;;;;;5.93;5.10;;;9.10;99.90;;;;;;5070326;28;20971;-63
2021/04/02 04:03:35;;;;;;;6.70;5.87;;;9.20;99.90;;;;;;5068418;28;20440;-64
2021/04/02 04:06:02;;;;;;;5.30;4.80;;;9.20;99.90;;;;;;5074721;28;20466;-63
2021/04/02 04:08:29;;;;;;;5.07;4.57;;;9.40;99.90;;;;;;5072685;28;20476;-63
2021/04/02 04:10:57;;;;;;;4.60;3.83;;;9.20;99.90;;;;;;5069432;28;20476;-64
2021/04/02 04:13:24;;;;;;;5.20;4.70;;;9.20;99.90;;;;;;5072439;28;20447;-63
2021/04/02 04:15:52;;;;;;;5.00;4.50;;;9.00;99.90;;;;;;5090922;28;20471;-63
2021/04/02 04:18:20;;;;;;;4.60;4.20;;;9.10;99.90;;;;;;5090514;28;20923;-63
2021/04/02 04:20:46;;;;;;;4.60;4.00;;;9.20;99.90;;;;;;5073382;28;20446;-63
2021/04/02 04:23:13;;;;;;;4.93;4.43;;;9.20;99.90;;;;;;5090499;28;20442;-64
2021/04/02 04:25:40;;;;;;;5.23;4.73;;;9.40;99.90;;;;;;5090523;28;20526;-63
2021/04/02 04:28:08;;;;;;;5.30;4.80;;;9.30;99.90;;;;;;5075156;28;20468;-62
2021/04/02 04:30:35;;;;;;;5.27;4.30;;;9.30;99.90;;;;;;5070474;28;20884;-63
2021/04/02 04:33:02;;;;;;;5.30;4.80;;;9.20;99.90;;;;;;5073641;28;20455;-63
2021/04/02 04:35:30;;;;;;;6.10;4.97;;;8.90;99.90;;;;;;5089948;28;20443;-63
2021/04/02 04:37:57;;;;;;;5.80;5.30;;;8.80;99.90;;;;;;5070341;28;20738;-62
2021/04/02 04:40:24;;;;;;;6.13;5.53;;;8.60;99.90;;;;;;5080111;28;20829;-63
2021/04/02 04:42:50;;;;;;;7.20;5.13;;;8.60;99.90;;;;;;5090466;28;20483;-62
2021/04/02 04:45:20;;;;;;;6.27;5.70;;;8.70;99.90;;;;;;5072022;28;20537;-64
2021/04/02 04:47:46;;;;;;;5.37;4.87;;;8.80;99.90;;;;;;5072822;28;20209;-64
2021/04/02 04:50:13;;;;;;;6.27;5.63;;;8.60;99.90;;;;;;5084134;28;20475;-65
2021/04/02 04:53:03;;;;;;;6.80;5.40;;;8.50;99.90;;;;;;5069892;28;20181;-63
2021/04/02 04:55:33;;;;;;;6.00;5.40;;;8.50;99.90;;;;;;5069320;28;20500;-63
2021/04/02 04:57:59;;;;;;;7.90;6.80;;;8.40;99.90;;;;;;5070337;28;20448;-65
2021/04/02 05:00:28;;;;;;;8.20;6.70;;;8.60;99.90;;;;;;5081195;28;20837;-63
2021/04/02 05:02:56;;;;;;;7.73;6.43;;;8.50;99.90;;;;;;5090455;28;20930;-62
2021/04/02 05:05:26;;;;;;;7.47;6.67;;;8.80;99.90;;;;;;5089968;28;20458;-62
2021/04/02 05:07:53;;;;;;;7.27;5.57;;;11.30;99.90;;;;;;5068455;28;20475;-65
2021/04/02 05:10:20;;;;;;;7.50;6.10;;;9.00;99.90;;;;;;5068217;28;20523;-63
2021/04/02 05:12:47;;;;;;;8.23;5.63;;;9.00;99.90;;;;;;5073132;28;20432;-63
2021/04/02 05:15:14;;;;;;;7.27;6.53;;;8.90;99.90;;;;;;5072402;28;20455;-63
2021/04/02 05:17:42;;;;;;;9.10;7.23;;;8.80;99.90;;;;;;5073648;28;20522;-63
2021/04/02 05:20:09;;;;;;;7.60;6.10;;;8.80;99.90;;;;;;5073294;28;20446;-63
2021/04/02 05:22:34;;;;;;;8.17;6.97;;;8.90;99.90;;;;;;5073756;28;20499;-64
2021/04/02 05:25:00;;;;;;;10.30;7.63;;;8.90;99.90;;;;;;5072239;28;20467;-62
2021/04/02 05:27:26;;;;;;;7.43;6.40;;;8.90;99.90;;;;;;5073811;28;20212;-62
2021/04/02 05:29:52;;;;;;;9.90;6.40;;;8.90;99.90;;;;;;5072405;28;20193;-62
2021/04/02 05:32:18;;;;;;;9.10;5.50;;;8.60;99.90;;;;;;5073749;28;20439;-64
2021/04/02 05:34:44;;;;;;;7.83;6.03;;;8.40;99.90;;;;;;5072426;28;20428;-64
2021/04/02 05:37:09;;;;;;;9.93;6.70;;;8.30;99.90;;;;;;5073849;28;20272;-64
2021/04/02 05:39:36;;;;;;;9.27;6.50;;;8.20;99.90;;;;;;5072990;28;20211;-63
2021/04/02 05:42:06;;;;;;;9.13;6.60;;;8.40;99.90;;;;;;5072369;28;20740;-63
2021/04/02 05:44:35;;;;;;;9.13;5.97;;;8.50;99.90;;;;;;5072076;28;20446;-64
2021/04/02 05:47:07;;;;;;;6.13;4.90;;;8.50;99.90;;;;;;5085337;28;20892;-64
2021/04/02 05:49:33;;;;;;;7.97;5.97;;;8.60;99.90;;;;;;5089901;28;20440;-63
2021/04/02 05:52:00;;;;;;;6.57;5.60;;;8.60;99.90;;;;;;5072790;28;20461;-65
2021/04/02 05:54:37;;;;;;;9.10;5.80;;;9.00;99.90;;;;;;5073378;28;20577;-64
2021/04/02 05:57:03;;;;;;;7.13;5.07;;;9.00;99.90;;;;;;5071657;28;20585;-63
2021/04/02 05:59:29;;;;;;;7.13;5.23;;;9.10;99.90;;;;;;5078149;28;20767;-63
2021/04/02 06:01:55;;;;;;;6.03;4.07;;;9.20;99.90;;;;;;5092052;28;20446;-64
2021/04/02 06:04:21;;;;;;;7.43;5.30;;;9.30;99.90;;;;;;5093438;28;20948;-64
2021/04/02 06:06:48;;;;;;;6.50;5.90;;;9.50;99.90;;;;;;5076468;28;20491;-63
2021/04/02 06:09:14;;;;;;;9.97;7.43;;;9.30;99.90;;;;;;5069852;28;20525;-63
2021/04/02 06:11:40;;;;;;;7.50;5.70;;;9.30;99.90;;;;;;5072665;28;20434;-66
2021/04/02 06:14:09;;;;;;;7.13;6.17;;;9.30;99.90;;;;;;5077443;28;20990;-64
2021/04/02 06:16:35;;;;;;;8.00;5.00;;;9.20;99.90;;;;;;5082683;28;20431;-65
2021/04/02 06:19:06;;;;;;;10.30;6.37;;;9.10;99.90;;;;;;5072701;28;20436;-64
2021/04/02 06:21:45;;;;;;;6.00;5.20;;;9.00;99.90;;;;;;5072372;28;20209;-65
2021/04/02 06:24:13;;;;;;;6.07;5.47;;;8.90;99.90;;;;;;5072575;28;20468;-63
2021/04/02 06:26:39;;;;;;;6.77;5.40;;;8.90;99.90;;;;;;5072529;28;20474;-64
2021/04/02 06:29:05;;;;;;;8.80;6.70;;;8.90;99.90;;;;;;5074762;28;20521;-65
2021/04/02 06:31:35;;;;;;;12.60;6.50;;;8.80;99.90;;;;;;5076901;28;20528;-64
2021/04/02 06:34:06;;;;;;;9.13;6.17;;;8.60;99.90;;;;;;5075500;28;20230;-64
2021/04/02 06:36:32;;;;;;;10.47;6.20;;;8.50;99.90;;;;;;5072611;28;20550;-63
2021/04/02 06:39:04;;;;;;;8.20;7.00;;;8.50;99.90;;;;;;5080199;28;20560;-63
2021/04/02 06:41:33;;;;;;;8.17;5.60;;;8.50;99.90;;;;;;5092703;28;20441;-63
2021/04/02 06:44:01;;;;;;;8.47;6.70;;;8.50;99.90;;;;;;5076033;28;20434;-64
2021/04/02 06:46:29;;;;;;;7.63;5.80;;;8.60;99.90;;;;;;5071299;28;20815;-64
2021/04/02 06:49:08;;;;;;;5.20;4.40;;;8.80;99.90;;;;;;5085712;28;20474;-64
2021/04/02 06:51:36;;;;;;;9.13;5.10;;;9.00;99.90;;;;;;5071803;28;20652;-65
2021/04/02 06:54:03;;;;;;;6.80;4.30;;;9.10;99.90;;;;;;5072560;28;20924;-64
2021/04/02 06:56:30;;;;;;;8.40;5.50;;;9.10;99.90;;;;;;5088672;28;20833;-64
2021/04/02 06:58:59;;;;;;;6.37;4.60;;;9.10;99.90;;;;;;5087013;28;20440;-64
2021/04/02 07:01:27;;;;;;;5.93;5.00;;;9.00;99.90;;;;;;5072349;28;20910;-66
2021/04/02 07:03:53;;;;;;;5.67;4.00;;;8.80;99.90;;;;;;5076017;28;20431;-63
2021/04/02 07:06:19;;;;;;;9.67;5.43;;;8.80;99.90;;;;;;5073174;28;20455;-62
2021/04/02 07:08:45;;;;;;;7.97;5.13;;;8.80;99.90;;;;;;5071890;28;20186;-62
2021/04/02 07:11:12;;;;;;;11.03;4.53;;;8.90;99.90;;;;;;5083528;28;20463;-62
2021/04/02 07:13:52;;;;;;;6.63;4.40;;;8.90;99.90;;;;;;5088375;28;20948;-63
2021/04/02 07:16:20;;;;;;;9.30;5.17;;;9.00;99.90;;;;;;5068592;28;20456;-62
2021/04/02 07:18:46;;;;;;;5.90;4.13;;;8.90;99.90;;;;;;5082660;28;20449;-63
2021/04/02 07:21:16;;;;;;;7.70;5.70;;;8.90;99.90;;;;;;5068023;28;20437;-63
2021/04/02 07:23:42;;;;;;;7.80;5.10;;;9.00;99.90;;;;;;5073023;28;20461;-63
2021/04/02 07:26:09;;;;;;;7.07;5.20;;;9.00;99.90;;;;;;5071519;28;20513;-61
2021/04/02 07:28:36;;;;;;;6.50;5.20;;;9.10;99.90;;;;;;5078086;28;20303;-63
2021/04/02 07:31:04;;;;;;;5.43;4.87;;;9.10;99.90;;;;;;5071416;28;20445;-62
2021/04/02 07:33:31;;;;;;;9.23;6.57;;;9.00;99.90;;;;;;5067551;28;20449;-63
2021/04/02 07:36:00;;;;;;;6.23;5.13;;;8.90;99.90;;;;;;5081238;28;20438;-62
2021/04/02 07:38:29;;;;;;;6.50;5.80;;;8.80;99.90;;;;;;5076822;28;20434;-62
2021/04/02 07:40:55;;;;;;;10.20;6.13;;;8.80;99.90;;;;;;5071136;28;20438;-63
2021/04/02 07:43:22;;;;;;;10.60;6.27;;;8.80;99.90;;;;;;5075548;28;20990;-63
2021/04/02 07:45:52;;;;;;;10.03;6.33;;;8.90;99.90;;;;;;5069691;28;20886;-62
2021/04/02 07:48:18;;;;;;;8.50;6.67;;;8.90;99.90;;;;;;5070703;28;20569;-61
2021/04/02 07:50:48;;;;;;;8.50;6.93;;;8.80;99.90;;;;;;5071302;28;20446;-64
2021/04/02 07:53:37;;;;;;;6.80;6.10;;;8.60;99.90;;;;;;5089356;28;20225;-63
2021/04/02 07:56:11;;;;;;;8.80;5.87;;;8.60;99.90;;;;;;5068021;28;20801;-62
2021/04/02 07:58:53;;;;;;;9.97;6.23;;;8.70;99.90;;;;;;5074861;28;20446;-63
2021/04/02 08:01:22;;;;;;;7.70;5.70;;;8.80;99.90;;;;;;5067938;28;20439;-62
2021/04/02 08:03:49;;;;;;;8.67;5.73;;;8.90;99.90;;;;;;5070205;28;20497;-63
2021/04/02 08:06:37;;;;;;;8.33;6.37;;;8.90;99.90;;;;;;5079152;28;20508;-62
2021/04/02 08:09:06;;;;;;;10.67;7.23;;;9.00;99.90;;;;;;5068339;28;20443;-61
2021/04/02 08:11:45;;;;;;;8.33;7.13;;;8.90;99.90;;;;;;5081898;28;20443;-61
2021/04/02 08:14:13;;;;;;;7.83;6.70;;;8.80;99.90;;;;;;5079623;28;20430;-62
2021/04/02 08:16:50;;;;;;;6.23;5.60;;;8.70;99.90;;;;;;5079758;28;20447;-63
2021/04/02 08:19:30;;;;;;;8.27;6.50;;;8.80;99.90;;;;;;5090671;28;20470;-63
2021/04/02 08:22:02;;;;;;;10.33;5.80;;;8.90;99.90;;;;;;5068244;28;20901;-63
2021/04/02 08:24:33;;;;;;;6.80;5.33;;;8.90;99.90;;;;;;5087522;28;20957;-63
2021/04/02 08:26:59;;;;;;;7.67;6.13;;;9.10;99.40;;;;;;5075222;28;21032;-62
2021/04/02 08:29:26;;;;;;;6.00;4.83;;;9.10;95.00;;;;;;5070009;28;20447;-63
2021/04/02 08:31:57;;;;;;;7.30;5.90;;;9.10;80.50;;;;;;5069546;28;20527;-61
2021/04/02 08:34:25;;;;;;;7.80;5.63;;;9.30;50.60;;;;;;5078408;28;20934;-63
2021/04/02 08:36:52;;;;;;;8.67;5.77;;;9.20;47.00;;;;;;5082485;28;20552;-63
2021/04/02 08:39:23;;;;;;;10.23;6.57;;;9.70;54.40;;;;;;5081660;28;20466;-62
2021/04/02 08:41:49;;;;;;;9.67;7.77;;;9.20;50.20;;;;;;5080682;28;20430;-61
2021/04/02 08:44:15;;;;;;;9.30;6.50;;;9.20;46.30;;;;;;5070335;28;20468;-62
2021/04/02 08:46:46;;;;;;;10.40;7.30;;;9.10;55.50;;;;;;5074948;28;20502;-62
2021/04/02 08:49:13;;;;;;;9.00;6.30;;;9.00;71.70;;;;;;5076938;28;20181;-63
2021/04/02 08:51:45;;;;;;;9.47;6.40;;;9.00;56.70;;;;;;5087339;28;20438;-62
2021/04/02 08:54:17;;;;;;;8.73;6.73;;;9.00;53.10;;;;;;5078910;28;20484;-62
2021/04/02 08:56:43;;;;;;;9.50;6.23;;;8.80;64.50;;;;;;5075697;28;20548;-61
2021/04/02 08:59:10;;;;;;;10.57;7.00;;;8.90;70.10;;;;;;5073302;28;20433;-62
2021/04/02 09:01:47;;;;;;;8.03;5.50;;;8.90;57.80;;;;;;5072745;28;20441;-63
2021/04/02 09:04:17;;;;;;;10.57;6.80;;;8.90;65.80;;;;;;5075450;28;20533;-62
2021/04/02 09:06:44;;;;;;;10.10;6.87;;;9.10;54.30;;;;;;5080248;28;20538;-62
2021/04/02 09:09:20;;;;;;;12.37;8.00;;;11.70;68.30;;;;;;5077487;28;20439;-62
2021/04/02 09:11:54;;;;;;;10.53;8.13;;;8.70;95.90;;;;;;5077248;28;20889;-62
2021/04/02 09:14:20;;;;;;;14.97;9.23;;;8.70;96.30;;;;;;5090044;28;20583;-62
2021/04/02 09:16:47;;;;;;;13.80;8.80;;;8.50;99.90;;;;;;5090241;28;20441;-61
2021/04/02 09:19:15;;;;;;;14.53;9.03;;;8.60;99.90;;;;;;5088209;28;20945;-61
2021/04/02 09:21:41;;;;;;;16.07;9.50;;;8.50;99.90;;;;;;5070154;28;20462;-61
2021/04/02 09:24:07;;;;;;;14.23;9.33;;;8.50;99.90;;;;;;5069185;28;20948;-62
2021/04/02 09:26:41;;;;;;;17.03;11.30;;;8.30;99.90;;;;;;5078077;28;20816;-61
2021/04/02 09:29:11;;;;;;;12.67;8.57;;;8.10;99.90;;;;;;5082730;28;20759;-61
2021/04/02 09:31:38;;;;;;;14.07;9.17;;;8.20;99.90;;;;;;5082319;28;20453;-62
2021/04/02 09:34:06;;;;;;;11.73;8.67;;;8.30;99.90;;;;;;5074215;28;20449;-60
2021/04/02 09:36:34;;;;;;;11.83;8.67;;;8.40;99.90;;;;;;5071237;28;20948;-61
2021/04/02 09:39:15;;;;;;;13.27;9.37;;;8.30;99.90;;;;;;5069365;28;20464;-62
2021/04/02 09:41:48;;;;;;;12.27;7.90;;;8.20;99.90;;;;;;5068991;28;20931;-62
2021/04/02 09:44:15;;;;;;;11.30;7.67;;;8.30;99.90;;;;;;5071916;28;20440;-62
2021/04/02 09:46:43;;;;;;;8.33;6.80;;;8.40;99.90;;;;;;5074223;28;20473;-61
2021/04/02 09:49:18;;;;;;;7.27;5.33;;;8.40;99.90;;;;;;5068137;28;20445;-62
2021/04/02 09:51:52;;;;;;;6.00;5.00;;;8.20;99.90;;;;;;5068018;28;20447;-61
2021/04/02 09:54:19;;;;;;;10.53;4.87;;;8.10;99.90;;;;;;5067261;28;20439;-63
2021/04/02 09:56:46;;;;;;;8.13;5.97;;;8.10;99.90;;;;;;5068334;28;20510;-62
2021/04/02 09:59:12;;;;;;;8.30;5.07;;;10.40;99.90;;;;;;5074216;28;20447;-62
2021/04/02 10:01:40;;;;;;;10.30;5.87;;;8.40;99.90;;;;;;5089824;28;20462;-62
2021/04/02 10:04:06;;;;;;;10.77;6.30;;;8.40;99.90;;;;;;5072407;28;20446;-62
2021/04/02 10:06:32;;;;;;;5.40;4.90;;;8.30;99.90;;;;;;5072360;28;20446;-61
2021/04/02 10:08:58;;;;;;;11.73;6.77;;;8.30;99.90;;;;;;5072973;28;20486;-62
2021/04/02 10:11:25;;;;;;;10.40;6.47;;;8.20;99.90;;;;;;5072240;28;20438;-62
2021/04/02 10:13:50;;;;;;;12.70;6.60;;;8.10;99.90;;;;;;5091808;28;20958;-64
2021/04/02 10:16:17;;;;;;;8.80;5.80;;;8.10;99.90;;;;;;5093299;28;20430;-62
2021/04/02 10:18:46;;;;;;;9.03;5.70;;;8.10;99.90;;;;;;5074354;28;20184;-63
2021/04/02 10:21:11;;;;;;;8.80;6.70;;;8.20;99.90;;;;;;5072866;28;20503;-63
2021/04/02 10:23:37;;;;;;;10.23;6.90;;;8.40;99.20;;;;;;5070327;28;20445;-62
2021/04/02 10:26:03;;;;;;;6.23;5.63;;;8.40;95.20;;;;;;5071992;28;20281;-63
2021/04/02 10:28:29;;;;;;;7.50;5.60;;;8.40;96.00;;;;;;5081449;28;20199;-61
2021/04/02 10:30:55;;;;;;;5.80;4.47;;;8.40;79.60;;;;;;5092899;28;20460;-62
2021/04/02 10:33:21;;;;;;;8.20;5.33;;;8.30;77.40;;;;;;5088421;28;20465;-62
2021/04/02 10:35:47;;;;;;;6.00;4.63;;;8.20;76.40;;;;;;5071331;28;20259;-62
2021/04/02 10:38:12;;;;;;;5.70;4.77;;;8.20;78.70;;;;;;5074239;28;20181;-62
2021/04/02 10:40:39;;;;;;;6.43;4.40;;;8.10;78.90;;;;;;5092723;28;20487;-63
2021/04/02 10:43:05;;;;;;;5.40;4.90;;;8.30;83.00;;;;;;5086826;28;20188;-63
2021/04/02 10:45:31;;;;;;;5.93;4.80;;;8.40;75.30;;;;;;5072547;28;20431;-63
2021/04/02 10:47:57;;;;;;;4.53;3.90;;;8.60;52.60;;;;;;5072052;28;20463;-62
2021/04/02 10:50:23;;;;;;;6.57;4.50;;;8.70;31.30;;;;;;5073476;28;20535;-63
2021/04/02 10:52:49;;;;;;;6.23;4.70;;;8.70;27.60;;;;;;5071808;28;20270;-63
2021/04/02 10:55:15;;;;;;;6.10;4.63;;;8.80;15.40;;;;;;5071949;28;20542;-63
2021/04/02 10:57:42;;;;;;;6.60;4.93;;;8.80;7.80;;;;;;5070742;28;20539;-62
2021/04/02 11:00:11;;;;;;;5.10;4.10;;;8.80;3.80;;;;;;5068826;28;20866;-63
2021/04/02 11:02:37;;;;;;;5.90;4.27;;;9.30;1.00;;;;;;5071990;28;20952;-62
2021/04/02 11:05:03;;;;;;;5.90;4.23;;;9.50;1.00;;;;;;5076278;28;20444;-63
2021/04/02 11:07:29;;;;;;;5.53;4.13;;;9.60;1.00;;;;;;5071787;28;20658;-62
2021/04/02 11:09:54;;;;;;;5.37;4.40;;;9.80;1.00;;;;;;5073145;28;20510;-62
2021/04/02 11:12:20;;;;;;;4.63;4.23;;;10.00;1.00;;;;;;5072452;28;20189;-64
2021/04/02 11:14:46;;;;;;;5.73;4.27;;;10.20;1.00;;;;;;5071853;28;20178;-64
2021/04/02 11:17:11;;;;;;;5.27;3.50;;;10.60;1.00;;;;;;5084173;28;20239;-64
2021/04/02 11:19:37;;;;;;;4.50;4.10;;;10.90;1.00;;;;;;5081752;28;20197;-63
2021/04/02 11:22:03;;;;;;;4.37;3.77;;;11.10;1.00;;;;;;5072060;28;20178;-64
2021/04/02 11:24:28;;;;;;;3.63;3.33;;;11.20;1.00;;;;;;5071850;28;20186;-65
2021/04/02 11:26:54;;;;;;;5.30;3.67;;;11.40;1.00;;;;;;5071745;28;20203;-65
2021/04/02 11:29:20;;;;;;;4.37;3.50;;;11.40;1.00;;;;;;5071833;28;20186;-65
2021/04/02 11:31:45;;;;;;;4.40;4.00;;;11.50;1.00;;;;;;5072048;28;20437;-65
2021/04/02 11:34:11;;;;;;;4.20;3.67;;;11.40;1.00;;;;;;5080874;28;20186;-65
2021/04/02 11:36:37;;;;;;;4.23;3.80;;;11.40;1.00;;;;;;5071743;28;20517;-65
2021/04/02 11:39:04;;;;;;;4.53;4.13;;;11.40;1.00;;;;;;5070375;28;20701;-66
2021/04/02 11:41:29;;;;;;;5.80;5.13;;;11.40;1.00;;;;;;5066589;28;20182;-66
2021/04/02 11:43:55;;;;;;;6.00;5.27;;;11.30;1.00;;;;;;5071136;28;20437;-65
2021/04/02 11:46:25;;;;;;;8.80;5.97;;;11.40;1.00;;;;;;5071965;28;20187;-66
2021/04/02 11:48:51;;;;;;;7.20;5.67;;;11.30;1.00;;;;;;5072014;28;20207;-65
2021/04/02 11:51:20;;;;;;;8.53;6.27;;;11.20;1.00;;;;;;5071172;28;21191;-66
2021/04/02 11:53:45;;;;;;;7.90;6.70;;;10.80;1.00;;;;;;5071395;28;20221;-66
2021/04/02 11:56:11;;;;;;;9.30;6.67;;;10.90;1.00;;;;;;5069429;28;20468;-64
2021/04/02 11:58:36;;;;;;;8.37;6.57;;;11.10;1.00;;;;;;5069198;28;20179;-66
2021/04/02 12:01:03;;;;;;;10.90;6.83;;;11.20;1.00;;;;;;5071110;28;20189;-66
2021/04/02 12:03:28;;;;;;;7.23;5.17;;;11.20;1.00;;;;;;5071040;28;20201;-67
2021/04/02 12:05:54;;;;;;;7.37;5.90;;;11.40;1.00;;;;;;5071147;28;20922;-66
2021/04/02 12:08:19;;;;;;;8.10;5.83;;;11.50;1.00;;;;;;5071121;28;20668;-65
2021/04/02 12:10:49;;;;;;;8.27;5.77;;;11.40;1.00;;;;;;5072617;28;20233;-65
2021/04/02 12:13:14;;;;;;;8.80;5.50;;;11.50;1.00;;;;;;5070890;28;20187;-66
2021/04/02 12:15:40;;;;;;;5.63;5.00;;;11.20;1.00;;;;;;5070635;28;20457;-66
2021/04/02 12:18:06;;;;;;;7.03;4.60;;;10.80;1.00;;;;;;5070912;28;20179;-66
2021/04/02 12:20:32;;;;;;;5.40;4.70;;;10.70;1.00;;;;;;5070611;28;20440;-65
2021/04/02 12:22:58;;;;;;;6.30;4.50;;;10.40;1.00;;;;;;5070755;28;20549;-67
2021/04/02 12:25:24;;;;;;;5.30;4.20;;;10.50;1.00;;;;;;5069842;28;20458;-65
2021/04/02 12:27:50;;;;;;;3.97;3.13;;;10.50;1.00;;;;;;5069154;28;20209;-66
2021/04/02 12:30:16;;;;;;;3.80;3.40;;;10.20;1.00;;;;;;5070331;28;20454;-66
2021/04/02 12:32:42;;;;;;;4.77;4.27;;;;;;;;;;5070247;28;20181;-66
2021/04/02 12:35:09;;;;;;;7.73;4.47;;;10.30;1.00;;;;;;5070106;28;20433;-66
2021/04/02 12:37:35;;;;;;;3.57;3.27;;;10.30;1.00;;;;;;5070327;28;20465;-66
2021/04/02 12:40:06;;;;;;;4.23;3.83;;;10.20;1.00;;;;;;5069992;28;20521;-65
2021/04/02 12:42:32;;;;;;;4.27;3.87;;;10.30;1.00;;;;;;5069959;28;20224;-65
2021/04/02 12:44:57;;;;;;;3.87;3.53;;;10.20;1.00;;;;;;5073863;28;20443;-64
2021/04/02 12:47:23;;;;;;;4.43;4.03;;;10.10;1.00;;;;;;5090333;28;20207;-65
2021/04/02 12:49:48;;;;;;;5.10;3.87;;;10.30;1.00;;;;;;5090263;28;20191;-65
2021/04/02 12:52:14;;;;;;;5.93;4.40;;;10.30;1.00;;;;;;5090370;28;20189;-66
2021/04/02 12:54:40;;;;;;;4.73;3.70;;;10.30;1.00;;;;;;5079630;28;20652;-66
2021/04/02 12:57:06;;;;;;;5.20;3.70;;;10.30;1.00;;;;;;5069600;28;20225;-66
2021/04/02 12:59:31;;;;;;;4.23;3.83;;;10.40;1.00;;;;;;5070165;28;20477;-65
2021/04/02 13:01:57;;;;;;;4.90;4.40;;;10.40;1.00;;;;;;5069083;28;20472;-65
2021/04/02 13:04:23;;;;;;;3.80;3.50;;;10.40;1.00;;;;;;5070172;28;20549;-65